Time;durP1;ratioP1;P1;durP2;ratioP2;P2;SDS_P1;SDS_P2;PMS_P1;PMS_P2;Temp;Humidity;BMP_temperature;BMP_pressure;BME280_temperature;BME280_humidity;BME280_pressure;Samples;Min_cycle;Max_cycle;Signal;HPM_P1;HPM_P2
2021/08/26 00:07:08;;;;;;;5.82;3.60;;;16.70;99.90;;;;;;6669969;89;20201;-77
2021/08/26 00:17:09;;;;;;;6.07;3.60;;;16.60;99.90;;;;;;6669842;89;20269;-77
2021/08/26 00:27:09;;;;;;;9.10;5.30;;;16.70;99.90;;;;;;6670919;89;20311;-78
2021/08/26 00:37:10;;;;;;;10.43;6.72;;;16.50;99.90;;;;;;6671796;89;20600;-76
2021/08/26 00:47:10;;;;;;;13.68;7.50;;;16.50;99.90;;;;;;6670526;89;20274;-77
2021/08/26 00:57:11;;;;;;;13.83;8.40;;;16.30;99.90;;;;;;6670723;89;20608;-77
2021/08/26 01:07:29;;;;;;;13.55;8.23;;;16.10;99.90;;;;;;6669984;89;20533;-77
2021/08/26 01:17:31;;;;;;;13.23;6.40;;;16.10;99.90;;;;;;6686532;88;20282;-78
2021/08/26 01:27:35;;;;;;;12.02;5.97;;;16.00;99.90;;;;;;6687152;88;21124;-77
2021/08/26 01:37:40;;;;;;;10.38;5.90;;;15.90;99.90;;;;;;6687174;88;20383;-76
2021/08/26 01:47:40;;;;;;;11.07;5.37;;;15.70;99.90;;;;;;6687248;88;20213;-76
2021/08/26 01:57:41;;;;;;;7.37;4.75;;;15.70;99.90;;;;;;6687862;89;20222;-78
2021/08/26 02:07:49;;;;;;;10.40;5.30;;;15.70;99.90;;;;;;6686485;89;20229;-78
2021/08/26 02:17:50;;;;;;;10.23;6.25;;;15.70;99.90;;;;;;6672077;89;20348;-76
2021/08/26 02:27:50;;;;;;;11.27;5.95;;;15.60;99.90;;;;;;6672436;89;20364;-76
2021/08/26 02:37:51;;;;;;;10.48;6.50;;;15.70;99.90;;;;;;6674908;89;20943;-77
2021/08/26 02:47:51;;;;;;;10.18;6.45;;;15.50;99.90;;;;;;6677493;88;20395;-79
2021/08/26 02:57:52;;;;;;;11.27;6.62;;;15.40;99.90;;;;;;6680772;88;20324;-77
2021/08/26 03:07:54;;;;;;;12.07;7.00;;;15.40;99.90;;;;;;6677567;88;20755;-77
2021/08/26 03:17:55;;;;;;;13.15;7.37;;;15.30;99.90;;;;;;6680810;88;21035;-77
2021/08/26 03:27:55;;;;;;;11.65;7.62;;;15.30;99.90;;;;;;6684052;88;20184;-77
2021/08/26 03:37:56;;;;;;;9.40;5.10;;;15.20;99.90;;;;;;6683709;88;20254;-77
2021/08/26 03:47:56;;;;;;;9.50;3.50;;;15.10;99.90;;;;;;6684243;88;20223;-76
2021/08/26 03:57:57;;;;;;;9.20;3.58;;;14.80;99.90;;;;;;6679516;88;20714;-77
2021/08/26 04:07:57;;;;;;;9.77;3.78;;;14.70;99.90;;;;;;6679755;88;20229;-78
2021/08/26 04:17:58;;;;;;;10.10;4.12;;;14.50;99.90;;;;;;6673855;88;20292;-77
2021/08/26 04:27:58;;;;;;;9.73;4.25;;;14.50;99.90;;;;;;6677112;88;20195;-78
2021/08/26 04:37:59;;;;;;;11.30;5.00;;;14.60;99.90;;;;;;6682987;88;20192;-78
2021/08/26 04:47:59;;;;;;;9.45;5.45;;;14.60;99.90;;;;;;6683135;88;20227;-78
2021/08/26 04:58:00;;;;;;;15.05;6.78;;;14.60;99.90;;;;;;6681844;88;20213;-78
2021/08/26 05:08:01;;;;;;;15.70;7.62;;;14.70;99.90;;;;;;6682736;88;20194;-77
2021/08/26 05:18:01;;;;;;;13.20;6.50;;;14.60;99.90;;;;;;6680696;88;20208;-78
2021/08/26 05:28:02;;;;;;;13.30;6.03;;;14.70;99.90;;;;;;6687484;88;20549;-78
2021/08/26 05:38:02;;;;;;;14.48;5.65;;;14.60;99.90;;;;;;6688212;88;22039;-77
2021/08/26 05:48:03;;;;;;;15.93;5.63;;;14.90;99.90;;;;;;6685541;88;20213;-77
2021/08/26 05:58:04;;;;;;;12.13;5.22;;;14.90;99.90;;;;;;6680766;88;20544;-78
2021/08/26 06:08:05;;;;;;;11.70;5.35;;;15.00;99.90;;;;;;6675328;89;20191;-77
2021/08/26 06:18:06;;;;;;;13.40;5.00;;;15.10;99.90;;;;;;6672218;89;20199;-78
2021/08/26 06:28:06;;;;;;;11.20;4.22;;;15.30;99.90;;;;;;6667451;89;20187;-77
2021/08/26 06:38:07;;;;;;;9.68;3.12;;;15.40;99.90;;;;;;6670884;89;20243;-77
2021/08/26 06:48:07;;;;;;;9.07;3.05;;;15.60;99.90;;;;;;6668616;88;20190;-77
2021/08/26 06:58:08;;;;;;;7.57;2.20;;;15.70;99.90;;;;;;6671363;89;20399;-77
2021/08/26 07:08:08;;;;;;;7.37;1.92;;;15.90;99.90;;;;;;6670311;89;20213;-77
2021/08/26 07:18:09;;;;;;;5.97;1.70;;;16.00;99.90;;;;;;6673114;89;20196;-76
2021/08/26 07:28:09;;;;;;;7.20;1.42;;;16.00;99.90;;;;;;6672919;88;20215;-76
2021/08/26 07:38:10;;;;;;;5.53;1.30;;;16.10;99.90;;;;;;6670906;88;20255;-76
2021/08/26 07:48:10;;;;;;;4.00;1.08;;;15.50;99.90;;;;;;6674168;88;20241;-77
2021/08/26 07:58:11;;;;;;;4.80;1.45;;;16.20;99.90;;;;;;6672349;88;20694;-77
2021/08/26 08:08:12;;;;;;;9.18;1.85;;;16.50;99.90;;;;;;6673584;88;20266;-76
2021/08/26 08:18:13;;;;;;;6.40;1.67;;;17.50;99.90;;;;;;6675262;88;20236;-77
2021/08/26 08:28:15;;;;;;;9.10;2.05;;;17.30;99.90;;;;;;6670711;88;20535;-76
2021/08/26 08:38:15;;;;;;;8.40;2.50;;;18.70;99.90;;;;;;6673293;88;21020;-77
2021/08/26 08:48:17;;;;;;;9.80;3.23;;;18.40;99.90;;;;;;6669181;88;20207;-77
2021/08/26 08:58:17;;;;;;;7.32;2.70;;;17.70;99.90;;;;;;6673735;88;20615;-77
2021/08/26 09:08:18;;;;;;;11.82;3.12;;;17.40;99.90;;;;;;6668975;88;21002;-77
2021/08/26 09:18:19;;;;;;;11.48;2.90;;;17.10;99.90;;;;;;6677026;88;20203;-76
2021/08/26 09:28:29;;;;;;;8.93;2.55;;;16.80;99.90;;;;;;6677343;88;21090;-75
2021/08/26 09:38:29;;;;;;;11.23;2.12;;;16.30;99.90;;;;;;6671572;88;20168;-76
2021/08/26 09:48:30;;;;;;;11.70;2.28;;;16.50;99.90;;;;;;6670652;89;20163;-77
2021/08/26 09:58:33;;;;;;;9.63;3.17;;;16.70;99.90;;;;;;6669077;89;20210;-78
2021/08/26 10:08:34;;;;;;;7.40;4.00;;;16.60;99.90;;;;;;6672815;88;20213;-77
2021/08/26 10:18:36;;;;;;;8.95;4.05;;;16.70;99.90;;;;;;6674160;89;20237;-77
2021/08/26 10:28:40;;;;;;;9.13;3.50;;;16.90;99.90;;;;;;6670143;88;20253;-77
2021/08/26 10:38:40;;;;;;;9.30;3.00;;;17.20;99.90;;;;;;6672415;88;20222;-77
2021/08/26 10:49:00;;;;;;;10.02;2.70;;;17.20;99.90;;;;;;6674885;88;20249;-77
2021/08/26 10:59:02;;;;;;;8.93;3.08;;;16.20;99.90;;;;;;6678015;88;20720;-77
2021/08/26 11:09:11;;;;;;;12.57;2.95;;;16.20;99.90;;;;;;6678217;88;20210;-77
2021/08/26 11:19:12;;;;;;;11.77;3.70;;;16.30;99.90;;;;;;6670238;88;20250;-77
2021/08/26 11:29:21;;;;;;;12.30;3.90;;;16.40;99.90;;;;;;6672400;88;21132;-77
2021/08/26 11:39:22;;;;;;;12.13;3.55;;;16.90;99.90;;;;;;6672425;88;20258;-77
2021/08/26 11:49:37;;;;;;;8.70;3.30;;;17.00;99.90;;;;;;6670417;88;20198;-77
2021/08/26 11:59:40;;;;;;;10.77;3.00;;;17.20;99.90;;;;;;6672342;88;20245;-77
2021/08/26 12:09:41;;;;;;;8.45;3.35;;;17.40;99.90;;;;;;6670917;88;20722;-77
2021/08/26 12:19:43;;;;;;;10.50;3.85;;;17.50;99.90;;;;;;6669007;88;20400;-76
2021/08/26 12:29:46;;;;;;;11.10;4.45;;;16.90;99.90;;;;;;6669689;88;21007;-76
2021/08/26 12:40:00;;;;;;;11.43;4.20;;;16.50;99.90;;;;;;6670212;88;20192;-76
2021/08/26 12:50:00;;;;;;;7.32;2.92;;;17.10;99.90;;;;;;6672817;88;20195;-76
2021/08/26 13:00:01;;;;;;;6.22;2.92;;;17.80;99.90;;;;;;6669892;88;20688;-76
2021/08/26 13:10:05;;;;;;;6.75;2.60;;;19.80;99.90;;;;;;6673188;88;20276;-76
2021/08/26 13:20:06;;;;;;;7.12;2.58;;;22.10;99.90;;;;;;6662905;88;20191;-76
2021/08/26 13:30:10;;;;;;;6.15;2.00;;;21.10;99.90;;;;;;6662820;89;20273;-76
2021/08/26 13:40:13;;;;;;;9.27;3.33;;;19.90;99.90;;;;;;6661877;89;20207;-75
2021/08/26 13:50:14;;;;;;;7.57;2.78;;;19.00;99.90;;;;;;6672500;89;20315;-78
2021/08/26 14:00:14;;;;;;;6.20;1.87;;;19.70;99.90;;;;;;6676100;89;20297;-77
2021/08/26 14:10:17;;;;;;;6.70;1.90;;;19.90;99.90;;;;;;6679308;89;20186;-76
2021/08/26 14:20:18;;;;;;;4.37;1.50;;;19.80;99.90;;;;;;6680331;88;20211;-76
2021/08/26 14:30:19;;;;;;;6.53;1.77;;;20.00;99.90;;;;;;6667678;88;20286;-77
2021/08/26 14:40:19;;;;;;;3.85;1.20;;;19.70;99.90;;;;;;6665605;89;20534;-75
2021/08/26 14:50:20;;;;;;;4.07;1.33;;;19.80;99.90;;;;;;6668189;88;20203;-77
2021/08/26 15:00:20;;;;;;;3.87;1.40;;;21.40;99.90;;;;;;6681262;88;20611;-77
2021/08/26 15:10:21;;;;;;;4.07;1.70;;;20.80;99.90;;;;;;6665819;88;20731;-77
2021/08/26 15:20:21;;;;;;;5.00;1.70;;;20.30;99.90;;;;;;6664785;89;20573;-77
2021/08/26 15:30:22;;;;;;;7.25;2.05;;;19.80;99.90;;;;;;6678844;88;20207;-76
2021/08/26 15:40:23;;;;;;;6.10;1.92;;;19.40;99.90;;;;;;6681878;88;20261;-76
2021/08/26 15:50:24;;;;;;;4.37;1.65;;;19.10;99.90;;;;;;6664908;88;20723;-76
2021/08/26 16:10:38;;;;;;;5.32;1.55;;;20.30;99.90;;;;;;6665739;89;20327;-77
2021/08/26 16:20:42;;;;;;;6.57;1.83;;;20.40;99.90;;;;;;6667928;88;20175;-78
2021/08/26 16:30:43;;;;;;;8.63;1.80;;;20.40;99.90;;;;;;6682418;88;20231;-77
2021/08/26 16:40:43;;;;;;;5.90;1.70;;;19.80;99.90;;;;;;6671493;89;20211;-78
2021/08/26 16:50:44;;;;;;;7.12;1.65;;;20.10;99.90;;;;;;6677705;88;20171;-79
2021/08/26 17:00:45;;;;;;;4.68;1.70;;;19.80;99.90;;;;;;6680776;88;20203;-77
2021/08/26 17:20:49;;;;;;;7.87;2.00;;;18.80;99.90;;;;;;6684826;88;20636;-77
2021/08/26 17:30:49;;;;;;;6.25;2.00;;;18.70;99.90;;;;;;6683076;88;20200;-77
2021/08/26 17:40:50;;;;;;;6.97;2.00;;;18.50;99.90;;;;;;6682847;88;20277;-77
2021/08/26 17:50:51;;;;;;;15.50;3.58;;;18.30;99.90;;;;;;6682092;88;20231;-78
2021/08/26 18:00:52;;;;;;;10.00;4.22;;;17.40;99.90;;;;;;6683443;88;20620;-78
2021/08/26 18:10:53;;;;;;;12.30;4.82;;;16.50;99.90;;;;;;6684119;88;20213;-79
2021/08/26 18:20:53;;;;;;;11.12;5.28;;;16.30;99.90;;;;;;6684597;88;20583;-79
2021/08/26 18:30:54;;;;;;;15.07;6.03;;;16.20;99.90;;;;;;6681833;89;20266;-79
2021/08/26 18:40:55;;;;;;;16.75;6.47;;;16.00;99.90;;;;;;6686773;88;20246;-80
2021/08/26 18:50:55;;;;;;;17.63;6.63;;;15.70;99.90;;;;;;6699950;88;20215;-79
2021/08/26 19:00:56;;;;;;;16.58;6.95;;;15.80;99.90;;;;;;6689396;89;20535;-77
2021/08/26 19:10:57;;;;;;;19.30;8.00;;;15.70;99.90;;;;;;6676934;88;20511;-78
2021/08/26 19:20:58;;;;;;;21.30;8.18;;;15.30;99.90;;;;;;6687800;88;20201;-78
2021/08/26 19:30:58;;;;;;;18.80;7.37;;;15.30;99.90;;;;;;6690768;88;20240;-78
2021/08/26 19:40:59;;;;;;;18.17;7.23;;;15.20;99.90;;;;;;6691449;88;20215;-78
2021/08/26 19:50:59;;;;;;;15.43;7.17;;;15.10;99.90;;;;;;6692829;88;20211;-79
2021/08/26 20:01:00;;;;;;;13.60;6.18;;;15.10;99.90;;;;;;6695574;88;20187;-78
2021/08/26 20:11:01;;;;;;;12.57;6.03;;;15.10;99.90;;;;;;6691088;88;20183;-78
2021/08/26 20:21:02;;;;;;;13.82;6.35;;;15.10;99.90;;;;;;6671473;89;20660;-78
2021/08/26 20:31:02;;;;;;;15.10;6.68;;;15.10;99.90;;;;;;6674636;89;20184;-79
2021/08/26 20:41:03;;;;;;;12.25;6.47;;;15.00;99.90;;;;;;6678324;89;20696;-78
2021/08/26 20:51:04;;;;;;;16.87;7.72;;;15.00;99.90;;;;;;6664148;89;20213;-78
2021/08/26 21:01:04;;;;;;;19.27;8.65;;;15.00;99.90;;;;;;6665013;89;20215;-79
2021/08/26 21:11:05;;;;;;;21.25;8.85;;;14.90;99.90;;;;;;6673563;89;20320;-79
2021/08/26 21:21:05;;;;;;;19.25;8.75;;;14.80;99.90;;;;;;6676120;89;20211;-78
2021/08/26 21:31:06;;;;;;;20.62;8.20;;;14.90;99.90;;;;;;6677085;89;20191;-78
2021/08/26 21:41:06;;;;;;;17.17;7.25;;;14.90;99.90;;;;;;6673459;89;20204;-78
2021/08/26 21:51:07;;;;;;;13.57;6.15;;;14.90;99.90;;;;;;6673813;89;20221;-79
2021/08/26 22:01:08;;;;;;;16.80;5.45;;;14.90;99.90;;;;;;6686290;89;20179;-78
2021/08/26 22:11:09;;;;;;;11.82;3.75;;;14.90;99.90;;;;;;6680735;89;20199;-78
2021/08/26 22:21:09;;;;;;;7.47;2.78;;;15.00;99.90;;;;;;6675699;89;20320;-78
2021/08/26 22:31:10;;;;;;;10.02;2.83;;;14.80;99.90;;;;;;6677194;89;20270;-78
2021/08/26 22:41:12;;;;;;;8.70;2.28;;;14.70;99.90;;;;;;6666952;89;20753;-78
2021/08/26 22:51:18;;;;;;;6.10;2.20;;;14.60;99.90;;;;;;6662421;89;20208;-78
2021/08/26 23:01:19;;;;;;;7.97;2.03;;;14.60;99.90;;;;;;6666227;89;20204;-79
2021/08/26 23:11:19;;;;;;;8.75;2.67;;;14.60;99.90;;;;;;6684782;77;20197;-75
2021/08/26 23:21:20;;;;;;;8.60;2.50;;;14.30;99.90;;;;;;6709065;88;20194;-75
2021/08/26 23:31:20;;;;;;;10.13;2.30;;;14.20;99.90;;;;;;6710223;88;20209;-75
2021/08/26 23:41:21;;;;;;;8.25;1.65;;;14.30;99.90;;;;;;6711207;88;20205;-74
2021/08/26 23:51:21;;;;;;;10.23;2.03;;;14.40;99.90;;;;;;6711137;88;20214;-75
